sensor_id;sensor_type;location;lat;lon;timestamp;pressure;altitude;pressure_sealevel;temperature;humidity
8575;BME280;4325;42.520;27.448;2023-02-21T00:00:13;101366.38;;;4.43;100.00
8575;BME280;4325;42.520;27.448;2023-02-21T00:02:57;101365.91;;;4.52;100.00
8575;BME280;4325;42.520;27.448;2023-02-21T00:05:42;101360.44;;;4.59;100.00
8575;BME280;4325;42.520;27.448;2023-02-21T00:08:26;101341.63;;;4.64;100.00
8575;BME280;4325;42.520;27.448;2023-02-21T00:11:11;101334.94;;;4.66;100.00
8575;BME280;4325;42.520;27.448;2023-02-21T00:13:56;101327.81;;;4.72;100.00
8575;BME280;4325;42.520;27.448;2023-02-21T00:16:40;101330.66;;;4.77;100.00
8575;BME280;4325;42.520;27.448;2023-02-21T00:19:24;101320.63;;;4.84;100.00
8575;BME280;4325;42.520;27.448;2023-02-21T00:22:08;101312.63;;;4.89;100.00
8575;BME280;4325;42.520;27.448;2023-02-21T00:24:52;101310.72;;;4.96;100.00
8575;BME280;4325;42.520;27.448;2023-02-21T00:27:37;101297.97;;;4.97;100.00
8575;BME280;4325;42.520;27.448;2023-02-21T00:30:22;101301.34;;;4.92;100.00
8575;BME280;4325;42.520;27.448;2023-02-21T00:33:06;101287.78;;;4.92;100.00
8575;BME280;4325;42.520;27.448;2023-02-21T00:35:50;101285.06;;;4.92;100.00
8575;BME280;4325;42.520;27.448;2023-02-21T00:38:36;101279.28;;;4.89;100.00
8575;BME280;4325;42.520;27.448;2023-02-21T00:41:20;101265.91;;;4.87;100.00
8575;BME280;4325;42.520;27.448;2023-02-21T00:44:05;101268.41;;;4.89;100.00
8575;BME280;4325;42.520;27.448;2023-02-21T00:46:50;101278.81;;;4.92;100.00
8575;BME280;4325;42.520;27.448;2023-02-21T00:49:35;101266.25;;;4.97;100.00
8575;BME280;4325;42.520;27.448;2023-02-21T00:52:19;101246.66;;;4.95;100.00
8575;BME280;4325;42.520;27.448;2023-02-21T00:55:04;101259.03;;;5.09;100.00
8575;BME280;4325;42.520;27.448;2023-02-21T00:57:48;101250.63;;;5.17;100.00
8575;BME280;4325;42.520;27.448;2023-02-21T01:00:33;101264.34;;;5.22;100.00
8575;BME280;4325;42.520;27.448;2023-02-21T01:03:18;101254.69;;;5.26;100.00
8575;BME280;4325;42.520;27.448;2023-02-21T01:06:08;101238.25;;;5.21;100.00
8575;BME280;4325;42.520;27.448;2023-02-21T01:08:52;101241.41;;;5.18;100.00
8575;BME280;4325;42.520;27.448;2023-02-21T01:11:36;101229.50;;;5.19;100.00
8575;BME280;4325;42.520;27.448;2023-02-21T01:14:20;101228.22;;;5.22;100.00
8575;BME280;4325;42.520;27.448;2023-02-21T01:17:05;101225.06;;;5.25;100.00
8575;BME280;4325;42.520;27.448;2023-02-21T01:19:50;101217.88;;;5.30;100.00
8575;BME280;4325;42.520;27.448;2023-02-21T01:22:34;101209.53;;;5.32;100.00
8575;BME280;4325;42.520;27.448;2023-02-21T01:25:19;101206.53;;;5.40;100.00
8575;BME280;4325;42.520;27.448;2023-02-21T01:28:03;101216.47;;;5.46;100.00
8575;BME280;4325;42.520;27.448;2023-02-21T01:30:47;101215.19;;;5.49;100.00
8575;BME280;4325;42.520;27.448;2023-02-21T01:33:35;101215.03;;;5.44;100.00
8575;BME280;4325;42.520;27.448;2023-02-21T01:36:21;101215.81;;;5.32;100.00
8575;BME280;4325;42.520;27.448;2023-02-21T01:39:06;101202.97;;;5.21;100.00
8575;BME280;4325;42.520;27.448;2023-02-21T01:41:50;101210.22;;;5.27;100.00
8575;BME280;4325;42.520;27.448;2023-02-21T01:44:37;101211.94;;;5.22;100.00
8575;BME280;4325;42.520;27.448;2023-02-21T01:47:22;101215.84;;;5.26;100.00
8575;BME280;4325;42.520;27.448;2023-02-21T01:50:12;101204.31;;;5.30;100.00
8575;BME280;4325;42.520;27.448;2023-02-21T01:52:58;101214.03;;;5.38;100.00
8575;BME280;4325;42.520;27.448;2023-02-21T01:55:44;101210.69;;;5.43;100.00
8575;BME280;4325;42.520;27.448;2023-02-21T01:58:29;101203.94;;;5.45;100.00
8575;BME280;4325;42.520;27.448;2023-02-21T02:01:20;101200.56;;;5.50;100.00
8575;BME280;4325;42.520;27.448;2023-02-21T02:04:06;101177.41;;;5.47;100.00
8575;BME280;4325;42.520;27.448;2023-02-21T02:06:51;101170.06;;;5.48;100.00
8575;BME280;4325;42.520;27.448;2023-02-21T02:09:36;101164.03;;;5.46;100.00
8575;BME280;4325;42.520;27.448;2023-02-21T02:12:36;101169.72;;;5.44;100.00
8575;BME280;4325;42.520;27.448;2023-02-21T02:15:23;101166.75;;;5.46;100.00
8575;BME280;4325;42.520;27.448;2023-02-21T02:18:05;101165.13;;;5.45;100.00
8575;BME280;4325;42.520;27.448;2023-02-21T02:21:04;101167.22;;;5.43;100.00
8575;BME280;4325;42.520;27.448;2023-02-21T02:26:56;101159.97;;;5.37;100.00
8575;BME280;4325;42.520;27.448;2023-02-21T02:32:45;101154.59;;;5.48;100.00
8575;BME280;4325;42.520;27.448;2023-02-21T02:35:20;101147.88;;;5.51;100.00
8575;BME280;4325;42.520;27.448;2023-02-21T02:37:52;101157.13;;;5.50;100.00
8575;BME280;4325;42.520;27.448;2023-02-21T02:40:26;101153.91;;;5.53;100.00
8575;BME280;4325;42.520;27.448;2023-02-21T02:43:02;101148.63;;;5.58;100.00
8575;BME280;4325;42.520;27.448;2023-02-21T02:45:38;101144.31;;;5.68;100.00
8575;BME280;4325;42.520;27.448;2023-02-21T02:48:20;101150.88;;;5.79;100.00
8575;BME280;4325;42.520;27.448;2023-02-21T02:50:50;101152.81;;;5.90;100.00
8575;BME280;4325;42.520;27.448;2023-02-21T02:53:20;101158.16;;;5.96;100.00
8575;BME280;4325;42.520;27.448;2023-02-21T02:55:49;101164.44;;;5.97;99.55
8575;BME280;4325;42.520;27.448;2023-02-21T02:58:18;101175.31;;;5.97;98.83
8575;BME280;4325;42.520;27.448;2023-02-21T03:00:52;101172.00;;;5.95;99.12
8575;BME280;4325;42.520;27.448;2023-02-21T03:03:39;101181.03;;;5.89;98.67
8575;BME280;4325;42.520;27.448;2023-02-21T03:06:19;101184.59;;;5.89;98.20
8575;BME280;4325;42.520;27.448;2023-02-21T03:08:52;101185.13;;;5.80;98.03
8575;BME280;4325;42.520;27.448;2023-02-21T03:11:23;101176.38;;;5.78;97.79
8575;BME280;4325;42.520;27.448;2023-02-21T03:13:55;101180.91;;;5.66;98.38
8575;BME280;4325;42.520;27.448;2023-02-21T03:16:26;101171.28;;;5.52;98.53
8575;BME280;4325;42.520;27.448;2023-02-21T03:18:58;101143.25;;;5.21;98.74
8575;BME280;4325;42.520;27.448;2023-02-21T03:21:33;101159.59;;;5.33;99.76
8575;BME280;4325;42.520;27.448;2023-02-21T03:24:03;101173.16;;;5.33;99.84
8575;BME280;4325;42.520;27.448;2023-02-21T03:26:34;101161.03;;;5.35;99.66
8575;BME280;4325;42.520;27.448;2023-02-21T03:29:03;101175.81;;;5.40;99.89
8575;BME280;4325;42.520;27.448;2023-02-21T03:31:34;101154.94;;;5.40;99.49
8575;BME280;4325;42.520;27.448;2023-02-21T03:34:03;101168.28;;;5.42;99.72
8575;BME280;4325;42.520;27.448;2023-02-21T03:36:31;101163.00;;;5.47;99.78
8575;BME280;4325;42.520;27.448;2023-02-21T03:38:58;101163.34;;;5.50;99.61
8575;BME280;4325;42.520;27.448;2023-02-21T03:41:25;101164.94;;;5.58;99.14
8575;BME280;4325;42.520;27.448;2023-02-21T03:43:52;101156.47;;;5.66;100.00
8575;BME280;4325;42.520;27.448;2023-02-21T03:46:19;101160.66;;;5.80;100.00
8575;BME280;4325;42.520;27.448;2023-02-21T03:48:46;101162.94;;;5.83;97.68
8575;BME280;4325;42.520;27.448;2023-02-21T03:51:13;101155.41;;;5.85;96.53
8575;BME280;4325;42.520;27.448;2023-02-21T03:53:41;101156.91;;;5.81;96.32
8575;BME280;4325;42.520;27.448;2023-02-21T03:56:08;101148.75;;;5.81;96.18
8575;BME280;4325;42.520;27.448;2023-02-21T03:58:35;101162.53;;;5.79;96.41
8575;BME280;4325;42.520;27.448;2023-02-21T04:01:01;101158.19;;;5.78;96.69
8575;BME280;4325;42.520;27.448;2023-02-21T04:03:29;101161.13;;;5.77;96.19
8575;BME280;4325;42.520;27.448;2023-02-21T04:05:56;101149.88;;;5.91;100.00
8575;BME280;4325;42.520;27.448;2023-02-21T04:08:23;101161.56;;;5.92;96.55
8575;BME280;4325;42.520;27.448;2023-02-21T04:10:51;101149.88;;;5.91;95.92
8575;BME280;4325;42.520;27.448;2023-02-21T04:13:18;101152.38;;;5.93;95.08
8575;BME280;4325;42.520;27.448;2023-02-21T04:15:45;101148.13;;;5.97;94.85
8575;BME280;4325;42.520;27.448;2023-02-21T04:18:12;101159.81;;;5.97;94.65
8575;BME280;4325;42.520;27.448;2023-02-21T04:20:39;101149.34;;;6.01;93.97
8575;BME280;4325;42.520;27.448;2023-02-21T04:23:06;101148.25;;;6.02;93.76
8575;BME280;4325;42.520;27.448;2023-02-21T04:25:32;101145.09;;;6.05;93.42
8575;BME280;4325;42.520;27.448;2023-02-21T04:28:01;101143.91;;;6.01;93.19
8575;BME280;4325;42.520;27.448;2023-02-21T04:30:27;101142.22;;;6.00;93.37
8575;BME280;4325;42.520;27.448;2023-02-21T04:32:54;101141.03;;;5.96;93.22
8575;BME280;4325;42.520;27.448;2023-02-21T04:35:21;101142.09;;;5.95;93.26
8575;BME280;4325;42.520;27.448;2023-02-21T04:37:48;101143.84;;;5.89;93.31
8575;BME280;4325;42.520;27.448;2023-02-21T04:40:15;101142.41;;;5.87;93.64
8575;BME280;4325;42.520;27.448;2023-02-21T04:42:42;101131.38;;;5.82;93.64
8575;BME280;4325;42.520;27.448;2023-02-21T04:45:10;101134.91;;;5.82;93.44
8575;BME280;4325;42.520;27.448;2023-02-21T04:47:37;101148.75;;;5.81;93.59
8575;BME280;4325;42.520;27.448;2023-02-21T04:50:04;101153.81;;;5.77;94.18
8575;BME280;4325;42.520;27.448;2023-02-21T04:52:32;101155.94;;;5.75;94.58
8575;BME280;4325;42.520;27.448;2023-02-21T04:54:58;101158.50;;;5.70;94.72
8575;BME280;4325;42.520;27.448;2023-02-21T04:57:25;101153.91;;;5.71;95.00
8575;BME280;4325;42.520;27.448;2023-02-21T04:59:56;101162.66;;;5.73;94.90
8575;BME280;4325;42.520;27.448;2023-02-21T05:02:26;101158.53;;;5.82;94.75
8575;BME280;4325;42.520;27.448;2023-02-21T05:04:53;101146.63;;;5.83;94.35
8575;BME280;4325;42.520;27.448;2023-02-21T05:07:19;101148.69;;;5.87;93.88
8575;BME280;4325;42.520;27.448;2023-02-21T05:09:46;101153.22;;;5.93;93.72
8575;BME280;4325;42.520;27.448;2023-02-21T05:12:14;101153.69;;;6.02;93.10
8575;BME280;4325;42.520;27.448;2023-02-21T05:14:41;101159.28;;;6.07;92.53
8575;BME280;4325;42.520;27.448;2023-02-21T05:17:08;101155.63;;;6.13;92.06
8575;BME280;4325;42.520;27.448;2023-02-21T05:19:36;101154.69;;;6.19;91.51
8575;BME280;4325;42.520;27.448;2023-02-21T05:22:03;101165.69;;;6.24;91.16
8575;BME280;4325;42.520;27.448;2023-02-21T05:24:32;101158.84;;;6.33;90.47
8575;BME280;4325;42.520;27.448;2023-02-21T05:26:59;101160.41;;;6.41;89.51
8575;BME280;4325;42.520;27.448;2023-02-21T05:29:26;101168.00;;;6.50;89.21
8575;BME280;4325;42.520;27.448;2023-02-21T05:31:54;101152.97;;;6.59;88.30
8575;BME280;4325;42.520;27.448;2023-02-21T05:34:20;101152.50;;;6.62;87.11
8575;BME280;4325;42.520;27.448;2023-02-21T05:36:49;101148.97;;;6.74;86.34
8575;BME280;4325;42.520;27.448;2023-02-21T05:39:15;101154.66;;;6.84;85.95
8575;BME280;4325;42.520;27.448;2023-02-21T05:41:46;101165.75;;;6.94;85.29
8575;BME280;4325;42.520;27.448;2023-02-21T05:44:13;101160.69;;;6.97;84.82
8575;BME280;4325;42.520;27.448;2023-02-21T05:46:40;101167.66;;;7.05;84.29
8575;BME280;4325;42.520;27.448;2023-02-21T05:49:07;101172.13;;;7.11;83.67
8575;BME280;4325;42.520;27.448;2023-02-21T05:51:35;101158.41;;;7.06;83.68
8575;BME280;4325;42.520;27.448;2023-02-21T05:54:04;101162.91;;;7.12;83.13
8575;BME280;4325;42.520;27.448;2023-02-21T05:56:36;101165.75;;;7.17;82.67
8575;BME280;4325;42.520;27.448;2023-02-21T05:59:03;101170.72;;;7.20;82.48
8575;BME280;4325;42.520;27.448;2023-02-21T06:01:30;101172.94;;;7.23;82.32
8575;BME280;4325;42.520;27.448;2023-02-21T06:03:57;101177.34;;;7.24;81.99
8575;BME280;4325;42.520;27.448;2023-02-21T06:06:24;101152.38;;;7.27;81.35
8575;BME280;4325;42.520;27.448;2023-02-21T06:08:51;101159.56;;;7.33;81.02
8575;BME280;4325;42.520;27.448;2023-02-21T06:11:24;101163.59;;;7.42;81.13
8575;BME280;4325;42.520;27.448;2023-02-21T06:13:54;101156.09;;;7.49;80.39
8575;BME280;4325;42.520;27.448;2023-02-21T06:16:22;101150.25;;;7.57;79.35
8575;BME280;4325;42.520;27.448;2023-02-21T06:18:50;101165.50;;;7.70;78.63
8575;BME280;4325;42.520;27.448;2023-02-21T06:21:17;101162.41;;;7.78;78.87
8575;BME280;4325;42.520;27.448;2023-02-21T06:23:44;101163.75;;;7.92;78.12
8575;BME280;4325;42.520;27.448;2023-02-21T06:26:11;101160.50;;;8.07;77.67
8575;BME280;4325;42.520;27.448;2023-02-21T06:28:40;101170.03;;;8.21;76.87
8575;BME280;4325;42.520;27.448;2023-02-21T06:31:07;101165.78;;;8.41;83.11
8575;BME280;4325;42.520;27.448;2023-02-21T06:33:33;101171.25;;;8.58;79.33
8575;BME280;4325;42.520;27.448;2023-02-21T06:36:03;101170.41;;;8.74;77.11
8575;BME280;4325;42.520;27.448;2023-02-21T06:38:31;101164.06;;;8.85;76.73
8575;BME280;4325;42.520;27.448;2023-02-21T06:40:58;101164.84;;;9.02;75.53
8575;BME280;4325;42.520;27.448;2023-02-21T06:43:25;101168.88;;;9.16;73.65
8575;BME280;4325;42.520;27.448;2023-02-21T06:45:53;101172.41;;;9.34;72.95
8575;BME280;4325;42.520;27.448;2023-02-21T06:48:20;101163.56;;;9.48;71.00
8575;BME280;4325;42.520;27.448;2023-02-21T06:50:47;101158.66;;;9.72;68.36
8575;BME280;4325;42.520;27.448;2023-02-21T06:53:14;101151.09;;;10.06;64.58
8575;BME280;4325;42.520;27.448;2023-02-21T06:55:41;101162.66;;;10.71;61.11
8575;BME280;4325;42.520;27.448;2023-02-21T06:58:07;101137.22;;;11.69;56.09
8575;BME280;4325;42.520;27.448;2023-02-21T07:00:35;101165.94;;;12.59;52.26
8575;BME280;4325;42.520;27.448;2023-02-21T07:03:03;101159.94;;;13.71;48.33
8575;BME280;4325;42.520;27.448;2023-02-21T07:05:30;101160.03;;;14.83;44.63
8575;BME280;4325;42.520;27.448;2023-02-21T07:07:59;101155.28;;;15.17;43.00
8575;BME280;4325;42.520;27.448;2023-02-21T07:10:26;101158.38;;;15.87;41.33
8575;BME280;4325;42.520;27.448;2023-02-21T07:12:53;101146.50;;;16.42;40.03
8575;BME280;4325;42.520;27.448;2023-02-21T07:15:20;101150.72;;;17.04;38.24
8575;BME280;4325;42.520;27.448;2023-02-21T07:17:47;101139.47;;;17.82;36.85
8575;BME280;4325;42.520;27.448;2023-02-21T07:20:16;101144.66;;;18.11;36.09
8575;BME280;4325;42.520;27.448;2023-02-21T07:22:43;101132.56;;;18.65;34.78
8575;BME280;4325;42.520;27.448;2023-02-21T07:25:13;101120.97;;;18.85;37.20
8575;BME280;4325;42.520;27.448;2023-02-21T07:27:40;101113.88;;;19.88;33.25
8575;BME280;4325;42.520;27.448;2023-02-21T07:30:08;101117.72;;;21.16;31.79
8575;BME280;4325;42.520;27.448;2023-02-21T07:32:35;101121.56;;;22.40;29.52
8575;BME280;4325;42.520;27.448;2023-02-21T07:35:02;101109.13;;;23.15;28.19
8575;BME280;4325;42.520;27.448;2023-02-21T07:37:30;101111.06;;;23.72;27.33
8575;BME280;4325;42.520;27.448;2023-02-21T07:39:57;101110.94;;;25.46;25.32
8575;BME280;4325;42.520;27.448;2023-02-21T07:42:24;101097.03;;;26.96;23.74
8575;BME280;4325;42.520;27.448;2023-02-21T07:44:54;101112.75;;;27.01;23.27
8575;BME280;4325;42.520;27.448;2023-02-21T07:47:21;101106.69;;;27.93;22.40
8575;BME280;4325;42.520;27.448;2023-02-21T07:49:48;101101.53;;;27.98;22.12
8575;BME280;4325;42.520;27.448;2023-02-21T07:52:16;101094.28;;;28.57;22.04
8575;BME280;4325;42.520;27.448;2023-02-21T07:54:44;101100.16;;;30.17;20.54
8575;BME280;4325;42.520;27.448;2023-02-21T07:57:12;101100.03;;;29.95;20.75
8575;BME280;4325;42.520;27.448;2023-02-21T07:59:39;101087.94;;;29.44;21.23
8575;BME280;4325;42.520;27.448;2023-02-21T08:02:05;101101.72;;;30.11;20.21
8575;BME280;4325;42.520;27.448;2023-02-21T08:04:32;101092.03;;;31.22;19.46
8575;BME280;4325;42.520;27.448;2023-02-21T08:07:00;101088.69;;;33.06;18.32
8575;BME280;4325;42.520;27.448;2023-02-21T08:09:27;101087.78;;;34.42;17.42
8575;BME280;4325;42.520;27.448;2023-02-21T08:11:56;101078.91;;;35.24;16.26
8575;BME280;4325;42.520;27.448;2023-02-21T08:14:22;101070.28;;;36.56;15.66
8575;BME280;4325;42.520;27.448;2023-02-21T08:16:49;101056.53;;;35.92;14.81
8575;BME280;4325;42.520;27.448;2023-02-21T08:19:16;101062.50;;;31.73;17.90
8575;BME280;4325;42.520;27.448;2023-02-21T08:21:43;101055.91;;;30.45;18.66
8575;BME280;4325;42.520;27.448;2023-02-21T08:24:11;101053.78;;;28.35;20.23
8575;BME280;4325;42.520;27.448;2023-02-21T08:26:38;101047.19;;;26.93;21.47
8575;BME280;4325;42.520;27.448;2023-02-21T08:29:08;101044.28;;;27.12;21.12
8575;BME280;4325;42.520;27.448;2023-02-21T08:31:35;101038.25;;;25.73;22.48
8575;BME280;4325;42.520;27.448;2023-02-21T08:34:02;101025.19;;;24.67;23.53
8575;BME280;4325;42.520;27.448;2023-02-21T08:36:32;101025.97;;;24.68;22.99
8575;BME280;4325;42.520;27.448;2023-02-21T08:38:59;101014.50;;;24.02;24.21
8575;BME280;4325;42.520;27.448;2023-02-21T08:41:34;101016.16;;;22.58;25.53
8575;BME280;4325;42.520;27.448;2023-02-21T08:44:01;101010.97;;;22.03;26.67
8575;BME280;4325;42.520;27.448;2023-02-21T08:46:29;101006.59;;;21.52;27.26
8575;BME280;4325;42.520;27.448;2023-02-21T08:48:56;101004.28;;;21.54;27.62
8575;BME280;4325;42.520;27.448;2023-02-21T08:51:24;100997.91;;;21.53;27.58
8575;BME280;4325;42.520;27.448;2023-02-21T08:53:51;100993.44;;;21.61;27.53
8575;BME280;4325;42.520;27.448;2023-02-21T08:56:18;100995.31;;;21.69;27.64
8575;BME280;4325;42.520;27.448;2023-02-21T08:58:45;100971.25;;;20.85;28.78
8575;BME280;4325;42.520;27.448;2023-02-21T09:01:12;100959.50;;;20.71;28.32
8575;BME280;4325;42.520;27.448;2023-02-21T09:03:40;100973.53;;;20.83;27.92
8575;BME280;4325;42.520;27.448;2023-02-21T09:06:07;100971.34;;;20.68;28.16
8575;BME280;4325;42.520;27.448;2023-02-21T09:08:34;100961.16;;;20.72;28.66
8575;BME280;4325;42.520;27.448;2023-02-21T09:11:01;100968.69;;;21.10;31.04
8575;BME280;4325;42.520;27.448;2023-02-21T09:13:30;100961.28;;;20.21;30.67
8575;BME280;4325;42.520;27.448;2023-02-21T09:15:57;100960.97;;;20.14;30.69
8575;BME280;4325;42.520;27.448;2023-02-21T09:18:24;100959.81;;;20.78;29.24
8575;BME280;4325;42.520;27.448;2023-02-21T09:20:53;100967.69;;;20.76;29.03
8575;BME280;4325;42.520;27.448;2023-02-21T09:23:23;100943.41;;;20.56;29.14
8575;BME280;4325;42.520;27.448;2023-02-21T09:25:50;100961.00;;;19.97;29.65
8575;BME280;4325;42.520;27.448;2023-02-21T09:28:18;100946.63;;;19.95;29.93
8575;BME280;4325;42.520;27.448;2023-02-21T09:30:46;100943.03;;;20.03;30.42
8575;BME280;4325;42.520;27.448;2023-02-21T09:33:13;100938.72;;;20.69;29.48
8575;BME280;4325;42.520;27.448;2023-02-21T09:35:41;100937.47;;;21.25;28.58
8575;BME280;4325;42.520;27.448;2023-02-21T09:38:09;100918.47;;;21.68;27.87
8575;BME280;4325;42.520;27.448;2023-02-21T09:40:39;100927.94;;;22.20;27.27
8575;BME280;4325;42.520;27.448;2023-02-21T09:43:12;100908.44;;;22.32;27.29
8575;BME280;4325;42.520;27.448;2023-02-21T09:45:40;100892.31;;;21.93;27.30
8575;BME280;4325;42.520;27.448;2023-02-21T09:48:12;100889.72;;;22.21;26.92
8575;BME280;4325;42.520;27.448;2023-02-21T09:50:42;100871.97;;;22.38;26.14
8575;BME280;4325;42.520;27.448;2023-02-21T09:53:15;100881.25;;;22.54;25.50
8575;BME280;4325;42.520;27.448;2023-02-21T09:55:42;100877.31;;;23.03;25.92
8575;BME280;4325;42.520;27.448;2023-02-21T09:58:11;100879.59;;;23.25;25.30
8575;BME280;4325;42.520;27.448;2023-02-21T10:00:42;100866.38;;;23.50;25.61
8575;BME280;4325;42.520;27.448;2023-02-21T10:03:35;100871.72;;;23.03;25.23
8575;BME280;4325;42.520;27.448;2023-02-21T10:06:10;100863.16;;;22.84;25.57
8575;BME280;4325;42.520;27.448;2023-02-21T10:08:49;100869.28;;;23.14;25.76
8575;BME280;4325;42.520;27.448;2023-02-21T10:11:27;100850.25;;;23.31;26.06
8575;BME280;4325;42.520;27.448;2023-02-21T10:14:05;100850.31;;;22.95;26.57
8575;BME280;4325;42.520;27.448;2023-02-21T10:16:39;100847.31;;;22.52;27.09
8575;BME280;4325;42.520;27.448;2023-02-21T10:19:14;100841.06;;;22.67;27.05
8575;BME280;4325;42.520;27.448;2023-02-21T10:21:47;100820.47;;;22.71;26.19
8575;BME280;4325;42.520;27.448;2023-02-21T10:24:18;100821.97;;;22.45;26.63
8575;BME280;4325;42.520;27.448;2023-02-21T10:26:49;100822.53;;;22.86;26.56
8575;BME280;4325;42.520;27.448;2023-02-21T10:29:21;100815.13;;;23.18;26.29
8575;BME280;4325;42.520;27.448;2023-02-21T10:31:52;100814.69;;;23.72;25.35
8575;BME280;4325;42.520;27.448;2023-02-21T10:34:23;100799.69;;;23.64;25.26
8575;BME280;4325;42.520;27.448;2023-02-21T10:36:53;100811.38;;;23.38;24.45
8575;BME280;4325;42.520;27.448;2023-02-21T10:39:27;100806.63;;;23.15;24.94
8575;BME280;4325;42.520;27.448;2023-02-21T10:41:57;100786.03;;;23.47;25.19
8575;BME280;4325;42.520;27.448;2023-02-21T10:44:27;100794.53;;;23.50;24.59
8575;BME280;4325;42.520;27.448;2023-02-21T10:47:00;100779.50;;;23.71;24.49
8575;BME280;4325;42.520;27.448;2023-02-21T10:49:31;100780.47;;;23.47;24.77
8575;BME280;4325;42.520;27.448;2023-02-21T10:52:10;100767.25;;;23.04;25.15
8575;BME280;4325;42.520;27.448;2023-02-21T10:54:39;100773.16;;;23.42;24.83
8575;BME280;4325;42.520;27.448;2023-02-21T10:57:07;100762.16;;;23.49;25.00
8575;BME280;4325;42.520;27.448;2023-02-21T10:59:38;100760.06;;;24.21;24.55
8575;BME280;4325;42.520;27.448;2023-02-21T11:02:25;100757.31;;;25.10;22.96
8575;BME280;4325;42.520;27.448;2023-02-21T11:04:54;100748.44;;;26.37;21.65
8575;BME280;4325;42.520;27.448;2023-02-21T11:07:22;100760.59;;;26.70;21.76
8575;BME280;4325;42.520;27.448;2023-02-21T11:09:51;100759.28;;;26.12;22.14
8575;BME280;4325;42.520;27.448;2023-02-21T11:12:22;100748.38;;;27.48;21.47
8575;BME280;4325;42.520;27.448;2023-02-21T11:15:16;100737.38;;;27.73;20.91
8575;BME280;4325;42.520;27.448;2023-02-21T11:17:43;100739.78;;;27.01;21.14
8575;BME280;4325;42.520;27.448;2023-02-21T11:20:17;100738.56;;;25.52;22.90
8575;BME280;4325;42.520;27.448;2023-02-21T11:22:45;100739.88;;;24.47;23.54
8575;BME280;4325;42.520;27.448;2023-02-21T11:25:20;100737.81;;;23.22;25.06
8575;BME280;4325;42.520;27.448;2023-02-21T11:28:01;100740.97;;;22.93;25.81
8575;BME280;4325;42.520;27.448;2023-02-21T11:30:29;100737.19;;;23.41;25.53
8575;BME280;4325;42.520;27.448;2023-02-21T11:32:58;100746.06;;;23.90;24.62
8575;BME280;4325;42.520;27.448;2023-02-21T11:35:28;100722.72;;;25.21;22.96
8575;BME280;4325;42.520;27.448;2023-02-21T11:37:57;100721.38;;;25.76;22.40
8575;BME280;4325;42.520;27.448;2023-02-21T11:40:29;100724.78;;;24.16;23.82
8575;BME280;4325;42.520;27.448;2023-02-21T11:43:19;100716.47;;;23.57;24.78
8575;BME280;4325;42.520;27.448;2023-02-21T11:45:59;100709.25;;;24.54;23.89
8575;BME280;4325;42.520;27.448;2023-02-21T11:48:30;100702.66;;;26.06;22.53
8575;BME280;4325;42.520;27.448;2023-02-21T11:51:03;100695.81;;;27.56;20.53
8575;BME280;4325;42.520;27.448;2023-02-21T11:53:37;100690.13;;;29.30;18.67
8575;BME280;4325;42.520;27.448;2023-02-21T11:56:18;100689.34;;;29.58;18.77
8575;BME280;4325;42.520;27.448;2023-02-21T11:58:53;100689.78;;;30.27;17.57
8575;BME280;4325;42.520;27.448;2023-02-21T12:01:25;100678.50;;;31.34;17.19
8575;BME280;4325;42.520;27.448;2023-02-21T12:04:12;100679.69;;;32.74;16.56
8575;BME280;4325;42.520;27.448;2023-02-21T12:06:43;100660.19;;;34.36;14.77
8575;BME280;4325;42.520;27.448;2023-02-21T12:09:16;100663.06;;;33.36;15.27
8575;BME280;4325;42.520;27.448;2023-02-21T12:11:57;100651.19;;;32.13;15.88
8575;BME280;4325;42.520;27.448;2023-02-21T12:14:43;100656.31;;;34.26;14.89
8575;BME280;4325;42.520;27.448;2023-02-21T12:17:24;100647.78;;;33.53;14.63
8575;BME280;4325;42.520;27.448;2023-02-21T12:20:05;100638.03;;;31.38;16.52
8575;BME280;4325;42.520;27.448;2023-02-21T12:22:48;100640.75;;;32.78;15.66
8575;BME280;4325;42.520;27.448;2023-02-21T12:25:25;100618.84;;;32.11;16.44
8575;BME280;4325;42.520;27.448;2023-02-21T12:28:03;100644.47;;;31.49;16.82
8575;BME280;4325;42.520;27.448;2023-02-21T12:31:02;100627.06;;;30.74;17.47
8575;BME280;4325;42.520;27.448;2023-02-21T12:33:40;100611.06;;;30.43;18.31
8575;BME280;4325;42.520;27.448;2023-02-21T12:36:29;100600.19;;;33.38;16.48
8575;BME280;4325;42.520;27.448;2023-02-21T12:39:06;100608.28;;;35.43;15.28
8575;BME280;4325;42.520;27.448;2023-02-21T12:42:07;100603.22;;;35.66;14.56
8575;BME280;4325;42.520;27.448;2023-02-21T12:44:42;100610.22;;;34.15;15.11
8575;BME280;4325;42.520;27.448;2023-02-21T12:47:18;100602.06;;;33.71;15.35
8575;BME280;4325;42.520;27.448;2023-02-21T12:49:54;100596.78;;;34.39;14.74
8575;BME280;4325;42.520;27.448;2023-02-21T12:52:25;100592.94;;;32.80;15.69
8575;BME280;4325;42.520;27.448;2023-02-21T12:54:57;100581.63;;;32.76;15.71
8575;BME280;4325;42.520;27.448;2023-02-21T12:57:31;100572.75;;;33.54;14.49
8575;BME280;4325;42.520;27.448;2023-02-21T13:00:12;100568.91;;;34.50;13.74
8575;BME280;4325;42.520;27.448;2023-02-21T13:02:47;100548.88;;;34.37;13.77
8575;BME280;4325;42.520;27.448;2023-02-21T13:05:18;100552.13;;;34.75;13.53
8575;BME280;4325;42.520;27.448;2023-02-21T13:07:49;100556.31;;;34.31;12.26
8575;BME280;4325;42.520;27.448;2023-02-21T13:10:21;100565.63;;;32.63;12.83
8575;BME280;4325;42.520;27.448;2023-02-21T13:12:55;100572.91;;;30.93;13.73
8575;BME280;4325;42.520;27.448;2023-02-21T13:15:26;100562.78;;;31.51;13.97
8575;BME280;4325;42.520;27.448;2023-02-21T13:17:58;100560.69;;;31.99;13.68
8575;BME280;4325;42.520;27.448;2023-02-21T13:20:28;100565.03;;;31.70;13.25
8575;BME280;4325;42.520;27.448;2023-02-21T13:26:28;100553.81;;;32.00;13.15
8575;BME280;4325;42.520;27.448;2023-02-21T13:28:57;100559.06;;;32.02;12.99
8575;BME280;4325;42.520;27.448;2023-02-21T13:31:28;100553.13;;;32.23;12.92
8575;BME280;4325;42.520;27.448;2023-02-21T13:34:02;100564.03;;;32.88;12.85
8575;BME280;4325;42.520;27.448;2023-02-21T13:36:39;100567.97;;;32.68;12.42
8575;BME280;4325;42.520;27.448;2023-02-21T13:39:11;100551.84;;;32.27;12.84
8575;BME280;4325;42.520;27.448;2023-02-21T13:47:05;100554.72;;;31.90;12.76